Hauptseite
METAR-TAF:

METAR-TAF

Flughäfen :

Flughafen Katima Mulilo

Katima Mulilo, Namibia

Breite: 17-38-04S, Länge: 024-10-36E, Höhe: 985 m

Beobachtung

Neuester Wetterbericht von vor 2 Stunden und 1 Minuten, um 12:00 UTC
Wind 6 kt aus Ost/Südost
Temperatur 34°C
Luftfeuchtigkeit 15%
Luftdruck 1016 hPa

METAR: FYKM 231200Z AUTO 11006KT //// // ////// 34/04 Q1016

Zeit: 16:01 (14:01 UTC)

Prognose

Neuester Wetterbericht von vor 3 Stunden und 1 Minuten, um 11:00 UTC
Gültige Prognose vom 23 um 12 UTC bis 23 um 21 UTC
Wind 10 kt aus Ost
Sichtweite 10 km oder mehr
keine Wolken unter 1500 m und keine Kumulonimbus oder Gewitterwolken

TAF: FYKM 231100Z 2312/2321 08010KT CAVOK

Wetterbeobachtungen und Prognosen von mehr als 4000 Flughäfen (METAR und TAF Bericht).

Die verfügbaren Stationen werden durch gelbe und rote Markierungen auf der Karte dargestellt.

Führen Sie die Maus auf sie, um den Namen der Station zu sehen.

Darauf klicken, um die Beobachtung von Wetterbeobachtungen und Prognosen zu sehen.

Um die Karte zu ändern : klicken Sie auf den grünen Tasten mit einem schwarzen Kreuz Zum Vergrößern, auf den grünen Button mit einem Gedankenstrich zu verkleinern, oder auf die grünen Pfeile für benachbarte Karten.


METAR-TAF: